createdAt,value
2022-08-30T00:01:00.659Z,100401.56
2022-08-30T00:04:03.226Z,100401.69
2022-08-30T00:07:05.736Z,100400.78
2022-08-30T00:10:08.453Z,100408.75
2022-08-30T00:13:12.225Z,100406.09
2022-08-30T00:16:14.979Z,100400.72
2022-08-30T00:19:18.130Z,100410.50
2022-08-30T00:22:20.630Z,100412.31
2022-08-30T00:25:23.441Z,100408.75
2022-08-30T00:28:26.120Z,100399.00
2022-08-30T00:31:28.658Z,100405.22
2022-08-30T00:34:32.322Z,100396.28
2022-08-30T00:37:35.370Z,100397.25
2022-08-30T00:40:39.018Z,100407.97
2022-08-30T00:43:42.035Z,100403.56
2022-08-30T00:46:44.806Z,100404.41
2022-08-30T00:49:50.035Z,100409.00
2022-08-30T00:52:54.308Z,100401.97
2022-08-30T00:55:57.620Z,100402.87
2022-08-30T00:59:02.021Z,100397.56
2022-08-30T01:02:05.232Z,100400.25
2022-08-30T01:05:10.782Z,100398.53
2022-08-30T01:08:20.446Z,100403.91
2022-08-30T01:11:24.440Z,100404.81
2022-08-30T01:14:27.582Z,100403.13
2022-08-30T01:17:30.520Z,100402.28
2022-08-30T01:20:38.023Z,100400.53
2022-08-30T01:23:42.742Z,100400.53
2022-08-30T01:26:46.720Z,100400.59
2022-08-30T01:29:50.324Z,100397.06
2022-08-30T01:32:56.823Z,100399.81
2022-08-30T01:36:04.470Z,100400.81
2022-08-30T01:39:07.090Z,100392.84
2022-08-30T01:42:09.614Z,100388.44
2022-08-30T01:45:13.155Z,100394.66
2022-08-30T01:48:15.680Z,100390.19
2022-08-30T01:51:18.803Z,100397.34
2022-08-30T01:54:21.276Z,100393.84
2022-08-30T01:57:29.839Z,100391.22
2022-08-30T02:00:32.526Z,100397.31
2022-08-30T02:03:36.408Z,100393.00
2022-08-30T02:06:39.086Z,100394.75
2022-08-30T02:09:41.497Z,100391.34
2022-08-30T02:12:44.089Z,100386.88
2022-08-30T02:15:47.027Z,100386.97
2022-08-30T02:18:50.384Z,100386.97
2022-08-30T02:21:52.826Z,100379.81
2022-08-30T02:24:55.375Z,100384.34
2022-08-30T02:27:57.981Z,100381.69
2022-08-30T02:31:01.223Z,100389.63
2022-08-30T02:34:04.523Z,100377.19
2022-08-30T02:37:07.123Z,100382.50
2022-08-30T02:40:10.877Z,100386.94
2022-08-30T02:43:13.470Z,100391.41
2022-08-30T02:46:16.661Z,100388.72
2022-08-30T02:49:34.695Z,100384.41
2022-08-30T02:52:38.065Z,100387.97
2022-08-30T02:55:40.685Z,100387.13
2022-08-30T02:58:43.858Z,100387.88
2022-08-30T03:01:46.603Z,100383.53
2022-08-30T03:04:49.363Z,100388.94
2022-08-30T03:07:52.231Z,100377.44
2022-08-30T03:10:56.923Z,100388.06
2022-08-30T03:13:59.689Z,100391.66
2022-08-30T03:17:02.768Z,100393.50
2022-08-30T03:20:05.949Z,100395.31
2022-08-30T03:23:08.350Z,100394.41
2022-08-30T03:26:13.209Z,100391.75
2022-08-30T03:29:15.805Z,100404.25
2022-08-30T03:32:19.054Z,100407.81
2022-08-30T03:35:21.569Z,100408.66
2022-08-30T03:38:24.340Z,100413.13
2022-08-30T03:41:26.763Z,100414.94
2022-08-30T03:44:29.624Z,100420.31
2022-08-30T03:47:32.083Z,100423.84
2022-08-30T03:50:35.738Z,100417.69
2022-08-30T03:53:38.170Z,100422.09
2022-08-30T03:56:40.678Z,100415.88
2022-08-30T03:59:43.082Z,100422.09
2022-08-30T04:02:45.710Z,100421.19
2022-08-30T04:05:48.820Z,100426.50
2022-08-30T04:08:51.052Z,100431.84
2022-08-30T04:11:53.839Z,100430.97
2022-08-30T04:14:56.198Z,100423.84
2022-08-30T04:17:59.023Z,100430.00
2022-08-30T04:21:01.746Z,100439.78
2022-08-30T04:24:04.536Z,100446.03
2022-08-30T04:27:06.971Z,100452.16
2022-08-30T04:30:10.726Z,100461.88
2022-08-30T04:33:14.408Z,100461.91
2022-08-30T04:36:17.260Z,100468.97
2022-08-30T04:39:19.563Z,100473.34
2022-08-30T04:42:22.338Z,100481.25
2022-08-30T04:45:24.587Z,100480.38
2022-08-30T04:48:27.295Z,100491.81
2022-08-30T04:51:29.581Z,100488.25
2022-08-30T04:54:32.800Z,100497.03
2022-08-30T04:57:35.142Z,100498.72
2022-08-30T05:00:37.973Z,100494.19
2022-08-30T05:03:40.273Z,100488.88
2022-08-30T05:06:43.068Z,100497.66
2022-08-30T05:09:45.300Z,100496.75
2022-08-30T05:12:47.990Z,100500.28
2022-08-30T05:15:50.292Z,100502.00
2022-08-30T05:18:53.986Z,100499.16
2022-08-30T05:21:56.340Z,100506.19
2022-08-30T05:24:59.698Z,100501.63
2022-08-30T05:28:02.107Z,100505.03
2022-08-30T05:31:13.944Z,100504.13
2022-08-30T05:34:16.843Z,100503.19
2022-08-30T05:37:19.528Z,100503.03
2022-08-30T05:40:22.199Z,100498.44
2022-08-30T05:43:26.928Z,100507.19
2022-08-30T05:49:37.217Z,100501.66
2022-08-30T05:52:40.632Z,100499.78
2022-08-30T05:55:43.384Z,100506.81
2022-08-30T05:58:46.040Z,100507.50
2022-08-30T06:01:48.839Z,100515.25
2022-08-30T06:04:51.386Z,100516.91
2022-08-30T06:07:55.194Z,100515.19
2022-08-30T06:10:57.768Z,100523.16
2022-08-30T06:14:00.362Z,100515.88
2022-08-30T06:17:02.981Z,100515.00
2022-08-30T06:20:05.728Z,100520.16
2022-08-30T06:23:08.334Z,100519.97
2022-08-30T06:26:13.007Z,100517.16
2022-08-30T06:29:18.965Z,100522.47
2022-08-30T06:32:21.599Z,100522.09
2022-08-30T06:35:24.872Z,100521.72
2022-08-30T06:38:28.149Z,100518.91
2022-08-30T06:41:32.348Z,100518.53
2022-08-30T06:44:34.781Z,100517.16
2022-08-30T06:47:37.664Z,100517.66
2022-08-30T06:50:42.150Z,100523.66
2022-08-30T06:53:44.663Z,100520.69
2022-08-30T06:56:58.108Z,100520.66
2022-08-30T07:00:02.385Z,100521.34
2022-08-30T07:03:04.921Z,100525.44
2022-08-30T07:06:07.989Z,100523.47
2022-08-30T07:09:10.457Z,100526.88
2022-08-30T07:12:14.241Z,100533.94
2022-08-30T07:15:20.546Z,100546.28
2022-08-30T07:18:42.339Z,100539.81
2022-08-30T07:21:44.844Z,100545.47
2022-08-30T07:24:47.692Z,100546.47
2022-08-30T07:27:52.018Z,100544.25
2022-08-30T07:30:54.530Z,100548.91
2022-08-30T07:33:57.048Z,100538.84
2022-08-30T07:36:59.620Z,100539.22
2022-08-30T07:40:02.424Z,100542.44
2022-08-30T07:43:04.979Z,100545.44
2022-08-30T07:46:08.079Z,100548.47
2022-08-30T07:49:11.806Z,100549.84
2022-08-30T07:52:14.276Z,100553.78
2022-08-30T07:55:17.515Z,100550.62
2022-08-30T07:58:20.731Z,100540.62
2022-08-30T08:01:23.781Z,100542.44
2022-08-30T08:04:26.537Z,100548.13
2022-08-30T08:07:30.143Z,100546.44
2022-08-30T08:10:33.632Z,100540.94
2022-08-30T08:13:45.241Z,100537.59
2022-08-30T08:16:55.820Z,100543.06
2022-08-30T08:19:58.079Z,100539.13
2022-08-30T08:23:00.856Z,100545.97
2022-08-30T08:26:03.737Z,100541.84
2022-08-30T08:29:08.036Z,100542.94
2022-08-30T08:32:13.672Z,100541.81
2022-08-30T08:35:17.139Z,100549.59
2022-08-30T08:38:19.374Z,100537.59
2022-08-30T08:41:25.669Z,100536.34
2022-08-30T08:48:14.567Z,100533.72
2022-08-30T08:51:38.468Z,100538.69
2022-08-30T08:54:51.419Z,100537.34
2022-08-30T08:57:53.671Z,100541.13
2022-08-30T09:00:57.855Z,100526.47
2022-08-30T09:04:02.891Z,100528.78
2022-08-30T09:07:09.371Z,100530.91
2022-08-30T09:10:11.701Z,100526.72
2022-08-30T09:13:14.708Z,100519.06
2022-08-30T09:16:39.885Z,100515.41
2022-08-30T09:19:45.227Z,100512.16
2022-08-30T09:22:47.530Z,100513.66
2022-08-30T09:25:55.796Z,100511.00
2022-08-30T09:29:00.069Z,100503.06
2022-08-30T09:32:24.577Z,100503.31
2022-08-30T09:35:25.390Z,100498.47
2022-08-30T09:38:35.870Z,100495.91
2022-08-30T09:41:42.631Z,100489.84
2022-08-30T09:44:45.560Z,100493.28
2022-08-30T09:47:47.839Z,100489.66
2022-08-30T09:50:56.436Z,100489.28
2022-08-30T09:54:18.640Z,100482.44
2022-08-30T09:57:33.860Z,100480.47
2022-08-30T10:01:03.025Z,100484.13
2022-08-30T10:04:13.443Z,100476.50
2022-08-30T10:07:36.909Z,100477.87
2022-08-30T10:10:57.894Z,100467.81
2022-08-30T10:14:00.147Z,100469.31
2022-08-30T10:17:12.723Z,100466.69
2022-08-30T10:20:22.221Z,100468.56
2022-08-30T10:23:30.784Z,100449.56
2022-08-30T10:26:51.683Z,100463.41
2022-08-30T10:30:10.669Z,100455.00
2022-08-30T10:33:25.441Z,100453.25
2022-08-30T10:36:32.395Z,100438.31
2022-08-30T10:39:39.638Z,100444.47
2022-08-30T10:42:43.284Z,100441.50
2022-08-30T10:45:47.059Z,100437.19
2022-08-30T10:48:49.760Z,100436.41
2022-08-30T10:52:02.728Z,100430.44
2022-08-30T10:55:10.340Z,100426.53
2022-08-30T10:58:12.802Z,100421.81
2022-08-30T11:01:18.743Z,100427.63
2022-08-30T11:04:45.660Z,100417.78
2022-08-30T11:07:58.057Z,100413.78
2022-08-30T11:11:19.188Z,100412.81
2022-08-30T11:14:25.529Z,100409.47
2022-08-30T11:17:32.836Z,100404.19
2022-08-30T11:20:56.284Z,100406.75
2022-08-30T11:23:58.483Z,100411.38
2022-08-30T11:27:02.006Z,100398.22
2022-08-30T11:30:23.171Z,100394.06
2022-08-30T11:33:30.810Z,100393.69
2022-08-30T11:36:37.364Z,100381.94
2022-08-30T11:39:43.888Z,100386.59
2022-08-30T11:42:48.102Z,100385.69
2022-08-30T11:45:54.743Z,100370.88
2022-08-30T11:49:23.448Z,100371.16
2022-08-30T11:52:36.745Z,100368.16
2022-08-30T11:55:40.405Z,100362.59
2022-08-30T11:59:05.931Z,100360.22
2022-08-30T12:02:32.095Z,100358.72
2022-08-30T12:05:48.103Z,100355.13
2022-08-30T12:08:54.239Z,100352.28
2022-08-30T12:12:03.052Z,100349.88
2022-08-30T12:15:05.559Z,100343.06
2022-08-30T12:18:28.104Z,100334.50
2022-08-30T12:21:44.859Z,100337.94
2022-08-30T12:24:51.771Z,100332.06
2022-08-30T12:28:08.996Z,100325.81
2022-08-30T12:31:17.578Z,100319.47
2022-08-30T12:34:31.995Z,100315.75
2022-08-30T12:37:36.758Z,100314.91
2022-08-30T12:40:48.370Z,100300.41
2022-08-30T12:43:51.970Z,100301.03
2022-08-30T12:46:59.608Z,100294.97
2022-08-30T12:50:04.798Z,100290.41
2022-08-30T12:53:13.530Z,100285.63
2022-08-30T12:56:35.052Z,100279.75
2022-08-30T12:59:56.727Z,100287.63
2022-08-30T13:03:23.851Z,100279.38
2022-08-30T13:06:42.161Z,100276.88
2022-08-30T13:09:44.838Z,100281.50
2022-08-30T13:13:01.074Z,100263.47
2022-08-30T13:16:09.533Z,100271.19
2022-08-30T13:19:30.049Z,100268.81
2022-08-30T13:22:34.542Z,100264.53
2022-08-30T13:25:38.348Z,100263.19
2022-08-30T13:28:49.080Z,100256.41
2022-08-30T13:31:51.582Z,100260.87
2022-08-30T13:34:54.399Z,100253.16
2022-08-30T13:37:57.812Z,100249.25
2022-08-30T13:41:00.697Z,100256.84
2022-08-30T13:44:13.481Z,100240.41
2022-08-30T13:47:34.899Z,100240.41
2022-08-30T13:50:37.850Z,100246.91
2022-08-30T13:53:56.117Z,100244.06
2022-08-30T13:56:59.779Z,100239.41
2022-08-30T14:00:06.557Z,100238.59
2022-08-30T14:03:14.763Z,100233.28
2022-08-30T14:06:32.814Z,100229.75
2022-08-30T14:09:36.559Z,100226.16
2022-08-30T14:12:59.022Z,100229.03
2022-08-30T14:19:27.076Z,100219.81
2022-08-30T14:22:29.315Z,100217.47
2022-08-30T14:25:32.147Z,100207.47
2022-08-30T14:28:34.497Z,100205.69
2022-08-30T14:31:39.443Z,100205.03
2022-08-30T14:34:41.786Z,100209.63
2022-08-30T14:37:45.257Z,100207.69
2022-08-30T14:40:47.672Z,100202.25
2022-08-30T14:43:51.247Z,100211.84
2022-08-30T14:46:53.929Z,100209.75
2022-08-30T14:50:15.441Z,100217.63
2022-08-30T14:53:17.697Z,100209.03
2022-08-30T14:56:21.553Z,100206.22
2022-08-30T14:59:24.797Z,100204.72
2022-08-30T15:02:27.535Z,100208.50
2022-08-30T15:05:31.771Z,100203.25
2022-08-30T15:08:36.196Z,100190.94
2022-08-30T15:11:39.068Z,100194.78
2022-08-30T15:14:41.854Z,100191.56
2022-08-30T15:17:44.774Z,100190.75
2022-08-30T15:20:49.428Z,100195.84
2022-08-30T15:23:52.427Z,100194.56
2022-08-30T15:26:55.384Z,100192.97
2022-08-30T15:29:57.600Z,100188.72
2022-08-30T15:33:00.309Z,100186.16
2022-08-30T15:36:04.299Z,100195.22
2022-08-30T15:39:07.776Z,100197.06
2022-08-30T15:42:16.336Z,100189.06
2022-08-30T15:45:21.825Z,100188.22
2022-08-30T15:48:24.254Z,100191.88
2022-08-30T15:51:28.064Z,100189.25
2022-08-30T15:54:30.915Z,100188.44
2022-08-30T15:57:35.985Z,100193.88
2022-08-30T16:00:42.771Z,100180.56
2022-08-30T16:03:47.509Z,100183.37
2022-08-30T16:06:51.117Z,100187.13
2022-08-30T16:09:55.373Z,100188.06
2022-08-30T16:13:00.128Z,100179.19
2022-08-30T16:16:04.302Z,100174.88
2022-08-30T16:19:07.134Z,100174.12
2022-08-30T16:22:11.705Z,100179.50
2022-08-30T16:25:14.268Z,100184.25
2022-08-30T16:28:18.032Z,100180.00
2022-08-30T16:31:20.878Z,100179.34
2022-08-30T16:34:23.808Z,100178.44
2022-08-30T16:37:28.192Z,100175.72
2022-08-30T16:40:31.012Z,100170.34
2022-08-30T16:43:33.638Z,100172.97
2022-08-30T16:46:37.154Z,100173.09
2022-08-30T16:49:39.576Z,100168.66
2022-08-30T16:52:44.333Z,100178.78
2022-08-30T16:55:46.694Z,100182.56
2022-08-30T16:58:49.553Z,100180.94
2022-08-30T17:01:52.234Z,100183.03
2022-08-30T17:04:57.383Z,100179.84
2022-08-30T17:08:00.734Z,100186.16
2022-08-30T17:11:06.279Z,100189.97
2022-08-30T17:14:10.443Z,100194.62
2022-08-30T17:17:13.199Z,100193.06
2022-08-30T17:20:15.866Z,100200.06
2022-08-30T17:23:18.711Z,100196.03
2022-08-30T17:26:21.451Z,100202.63
2022-08-30T17:29:24.235Z,100197.31
2022-08-30T17:32:26.615Z,100201.31
2022-08-30T17:35:30.013Z,100200.72
2022-08-30T17:38:32.665Z,100206.37
2022-08-30T17:41:35.835Z,100208.38
2022-08-30T17:44:42.308Z,100209.34
2022-08-30T17:47:45.639Z,100214.03
2022-08-30T17:50:54.772Z,100218.84
2022-08-30T17:53:57.946Z,100228.06
2022-08-30T17:57:01.089Z,100228.25
2022-08-30T18:00:05.120Z,100238.25
2022-08-30T18:03:08.098Z,100243.87
2022-08-30T18:06:11.021Z,100250.31
2022-08-30T18:09:13.743Z,100245.19
2022-08-30T18:12:16.954Z,100249.91
2022-08-30T18:15:20.443Z,100257.25
2022-08-30T18:18:24.287Z,100250.22
2022-08-30T18:21:28.589Z,100260.19
2022-08-30T18:24:31.741Z,100263.06
2022-08-30T18:27:33.982Z,100270.28
2022-08-30T18:30:41.775Z,100273.94
2022-08-30T18:33:44.660Z,100277.59
2022-08-30T18:36:47.443Z,100266.16
2022-08-30T18:39:50.401Z,100274.34
2022-08-30T18:42:53.427Z,100273.59
2022-08-30T18:45:55.766Z,100278.25
2022-08-30T18:49:00.178Z,100270.41
2022-08-30T18:52:03.592Z,100273.16
2022-08-30T18:55:07.128Z,100282.19
2022-08-30T18:58:11.030Z,100293.03
2022-08-30T19:01:16.423Z,100284.25
2022-08-30T19:04:29.610Z,100286.09
2022-08-30T19:07:40.315Z,100278.97
2022-08-30T19:10:42.869Z,100279.06
2022-08-30T19:13:45.751Z,100282.75
2022-08-30T19:16:48.044Z,100282.97
2022-08-30T19:19:52.128Z,100285.72
2022-08-30T19:23:10.681Z,100280.44
2022-08-30T19:26:13.607Z,100276.97
2022-08-30T19:29:16.485Z,100276.22
2022-08-30T19:32:19.259Z,100283.41
2022-08-30T19:35:22.072Z,100279.97
2022-08-30T19:38:25.145Z,100287.13
2022-08-30T19:41:29.562Z,100276.59
2022-08-30T19:44:32.471Z,100278.44
2022-08-30T19:47:34.845Z,100282.06
2022-08-30T19:50:37.625Z,100285.75
2022-08-30T19:53:40.053Z,100281.34
2022-08-30T19:56:42.836Z,100284.13
2022-08-30T19:59:45.335Z,100278.84
2022-08-30T20:02:48.034Z,100289.56
2022-08-30T20:05:54.106Z,100286.97
2022-08-30T20:08:57.952Z,100282.59
2022-08-30T20:12:02.376Z,100300.47
2022-08-30T20:15:09.259Z,100301.34
2022-08-30T20:18:13.629Z,100289.00
2022-08-30T20:21:18.475Z,100297.94
2022-08-30T20:24:21.016Z,100290.94
2022-08-30T20:27:24.289Z,100287.41
2022-08-30T20:30:27.472Z,100283.00
2022-08-30T20:33:30.007Z,100278.66
2022-08-30T20:36:33.832Z,100281.41
2022-08-30T20:39:37.148Z,100271.72
2022-08-30T20:42:43.574Z,100269.19
2022-08-30T20:45:46.646Z,100268.28
2022-08-30T20:48:49.216Z,100262.12
2022-08-30T20:51:54.136Z,100260.47
2022-08-30T20:54:57.348Z,100260.53
2022-08-30T20:57:59.899Z,100262.38
2022-08-30T21:01:02.511Z,100267.72
2022-08-30T21:04:05.964Z,100277.63
2022-08-30T21:07:08.570Z,100275.91
2022-08-30T21:10:11.783Z,100283.97
2022-08-30T21:13:14.364Z,100273.41
2022-08-30T21:16:17.440Z,100282.31
2022-08-30T21:19:24.631Z,100277.87
2022-08-30T21:22:27.211Z,100287.63
2022-08-30T21:25:30.990Z,100289.47
2022-08-30T21:28:33.877Z,100278.84
2022-08-30T21:31:40.125Z,100289.47
2022-08-30T21:35:01.015Z,100285.09
2022-08-30T21:38:06.603Z,100292.16
2022-08-30T21:41:09.238Z,100285.13
2022-08-30T21:44:13.872Z,100286.94
2022-08-30T21:47:23.304Z,100294.97
2022-08-30T21:50:26.583Z,100301.25
2022-08-30T21:53:29.268Z,100295.94
2022-08-30T21:56:31.963Z,100293.34
2022-08-30T21:59:34.439Z,100294.25
2022-08-30T22:02:36.953Z,100310.25
2022-08-30T22:05:40.816Z,100299.62
2022-08-30T22:08:44.193Z,100289.88
2022-08-30T22:11:47.360Z,100292.59
2022-08-30T22:14:49.671Z,100289.03
2022-08-30T22:17:52.437Z,100293.50
2022-08-30T22:20:54.696Z,100281.13
2022-08-30T22:23:59.704Z,100283.00
2022-08-30T22:27:03.005Z,100280.31
2022-08-30T22:30:06.010Z,100283.91
2022-08-30T22:33:08.206Z,100291.94
2022-08-30T22:36:12.746Z,100288.47
2022-08-30T22:39:15.154Z,100277.84
2022-08-30T22:42:17.876Z,100283.22
2022-08-30T22:45:20.128Z,100283.25
2022-08-30T22:48:22.848Z,100286.88
2022-08-30T22:51:25.072Z,100300.25
2022-08-30T22:54:27.786Z,100288.72
2022-08-30T22:57:31.117Z,100285.22
2022-08-30T23:00:33.917Z,100293.06
2022-08-30T23:03:36.943Z,100293.34
2022-08-30T23:06:40.253Z,100293.38
2022-08-30T23:09:42.460Z,100287.16
2022-08-30T23:12:45.149Z,100281.03
2022-08-30T23:15:47.532Z,100287.25
2022-08-30T23:18:50.283Z,100280.16
2022-08-30T23:21:52.508Z,100274.72
2022-08-30T23:25:16.033Z,100271.22
2022-08-30T23:28:37.981Z,100266.81
2022-08-30T23:31:59.418Z,100273.22
2022-08-30T23:35:20.194Z,100268.94
2022-08-30T23:38:46.623Z,100266.28
2022-08-30T23:42:07.411Z,100271.56
2022-08-30T23:45:28.902Z,100270.78
2022-08-30T23:48:50.834Z,100269.16
2022-08-30T23:52:13.420Z,100263.84
2022-08-30T23:55:34.143Z,100270.16
2022-08-30T23:58:55.395Z,100268.41
